Payson, Illinois
Current Conditions -  °F | °C
As of 9:54 AM on Thursday 27 Nov 2014 (Local Time) from KUIN Reporting Station
Overcast Overcast  
Wind Chill: 11°   Ceiling: 2100
Heat Index: 24°   Visibility: 10mi
Dew Point: 16°   Wind: 16mph
Humidity: 71%   Direction: 310°NW
Pressure: 30.48"   Gusts: NA
Location:  39.82°N, 91.24°W
Report Text: KUIN 271554Z AUTO 31014KT 10SM OVC021 M04/M09 A3048 RMK AO2 SLP331 T10441089
Loading
Personal Weather Stations






























Interactive Weather Map New forecast layout! Learn more

10-Day Weather Forecast

Advertisements
Track Severe Weather on mobile